createdAt,value
2018-09-23T00:01:47.209Z,2
2018-09-23T00:06:49.639Z,3
2018-09-23T00:11:52.144Z,2
2018-09-23T00:16:54.579Z,4
2018-09-23T00:21:56.993Z,4
2018-09-23T00:26:59.563Z,5
2018-09-23T00:32:01.868Z,3
2018-09-23T00:37:04.290Z,4
2018-09-23T00:42:06.995Z,4
2018-09-23T00:47:09.166Z,2
2018-09-23T00:52:11.601Z,1
2018-09-23T00:57:14.089Z,2
2018-09-23T01:02:16.512Z,2
2018-09-23T01:07:18.935Z,3
2018-09-23T01:12:21.413Z,5
2018-09-23T01:17:23.861Z,4
2018-09-23T01:22:26.262Z,4
2018-09-23T01:27:28.716Z,3
2018-09-23T01:32:31.148Z,6
2018-09-23T01:42:36.110Z,4
2018-09-23T01:47:38.445Z,3
2018-09-23T01:52:40.879Z,2
2018-09-23T01:57:43.381Z,2
2018-09-23T02:02:45.778Z,2
2018-09-23T02:07:48.256Z,4
2018-09-23T02:12:50.660Z,3
2018-09-23T02:17:53.087Z,5
2018-09-23T02:22:55.529Z,2
2018-09-23T02:27:58.016Z,1
2018-09-23T02:33:00.398Z,3
2018-09-23T02:38:02.835Z,3
2018-09-23T02:43:05.331Z,2
2018-09-23T02:48:07.771Z,2
2018-09-23T02:53:10.188Z,2
2018-09-23T02:58:12.623Z,3
2018-09-23T03:03:15.066Z,2
2018-09-23T03:08:17.498Z,2
2018-09-23T03:13:19.930Z,2
2018-09-23T03:18:22.395Z,3
2018-09-23T03:23:24.831Z,1
2018-09-23T03:28:27.303Z,2
2018-09-23T03:33:29.773Z,3
2018-09-23T03:38:32.132Z,3
2018-09-23T03:43:34.588Z,2
2018-09-23T03:48:37.011Z,3
2018-09-23T03:53:39.484Z,5
2018-09-23T03:58:41.898Z,2
2018-09-23T04:03:44.338Z,2
2018-09-23T04:08:46.766Z,2
2018-09-23T04:13:49.349Z,2
2018-09-23T04:18:51.737Z,3
2018-09-23T04:23:54.124Z,2
2018-09-23T04:28:56.585Z,3
2018-09-23T04:33:59.062Z,4
2018-09-23T04:39:01.447Z,2
2018-09-23T04:44:03.842Z,3
2018-09-23T04:49:06.424Z,2
2018-09-23T04:54:08.786Z,1
2018-09-23T04:59:11.172Z,2
2018-09-23T05:04:13.599Z,3
2018-09-23T05:09:16.056Z,4
2018-09-23T05:14:18.512Z,2
2018-09-23T05:19:21.087Z,3
2018-09-23T05:24:23.413Z,3
2018-09-23T05:29:25.814Z,2
2018-09-23T05:34:28.243Z,2
2018-09-23T05:39:30.714Z,2
2018-09-23T05:44:33.122Z,2
2018-09-23T05:49:35.633Z,2
2018-09-23T05:54:38.018Z,2
2018-09-23T05:59:40.451Z,2
2018-09-23T06:04:42.898Z,3
2018-09-23T06:09:45.324Z,5
2018-09-23T06:14:47.810Z,2
2018-09-23T06:19:50.211Z,3
2018-09-23T06:24:52.650Z,3
2018-09-23T06:29:55.095Z,3
2018-09-23T06:34:57.555Z,3
2018-09-23T06:40:00.034Z,4
2018-09-23T06:45:02.454Z,4
2018-09-23T06:50:05.109Z,3
2018-09-23T06:55:07.317Z,3
2018-09-23T07:00:09.749Z,3
2018-09-23T07:05:12.236Z,4
2018-09-23T07:10:14.647Z,4
2018-09-23T07:15:17.097Z,3
2018-09-23T07:20:19.480Z,3
2018-09-23T07:25:22.102Z,4
2018-09-23T07:30:24.379Z,2
2018-09-23T07:35:26.798Z,3
2018-09-23T07:40:29.332Z,3
2018-09-23T07:45:31.766Z,6
2018-09-23T07:50:34.120Z,2
2018-09-23T07:55:36.590Z,3
2018-09-23T08:00:39.026Z,3
2018-09-23T08:05:41.440Z,2
2018-09-23T08:10:43.899Z,2
2018-09-23T08:15:46.341Z,4
2018-09-23T08:20:48.813Z,2
2018-09-23T08:25:51.274Z,1
2018-09-23T08:30:53.659Z,2
2018-09-23T08:35:56.117Z,3
2018-09-23T08:40:58.551Z,1
2018-09-23T08:46:01.174Z,1
2018-09-23T08:51:03.411Z,1
2018-09-23T08:56:05.862Z,1
2018-09-23T09:01:08.295Z,2
2018-09-23T09:06:10.711Z,1
2018-09-23T09:11:13.187Z,2
2018-09-23T09:16:15.641Z,3
2018-09-23T09:21:18.041Z,4
2018-09-23T09:26:20.510Z,3
2018-09-23T09:31:23.173Z,4
2018-09-23T09:36:25.392Z,3
2018-09-23T09:41:27.803Z,3
2018-09-23T09:46:30.262Z,3
2018-09-23T09:51:32.696Z,3
2018-09-23T09:56:35.154Z,3
2018-09-23T10:01:37.619Z,4
2018-09-23T10:06:40.042Z,3
2018-09-23T10:11:42.449Z,3
2018-09-23T10:16:44.933Z,2
2018-09-23T10:21:47.345Z,2
2018-09-23T10:26:49.893Z,2
2018-09-23T10:31:52.245Z,3
2018-09-23T10:36:54.635Z,3
2018-09-23T10:41:57.110Z,2
2018-09-23T10:46:59.687Z,2
2018-09-23T10:52:01.988Z,2
2018-09-23T10:57:04.448Z,2
2018-09-23T11:02:06.891Z,2
2018-09-23T11:07:09.316Z,2
2018-09-23T11:12:11.925Z,2
2018-09-23T11:17:14.196Z,2
2018-09-23T11:22:16.632Z,1
2018-09-23T11:27:19.059Z,1
2018-09-23T11:32:21.515Z,1
2018-09-23T11:37:24.045Z,2
2018-09-23T11:42:26.375Z,1
2018-09-23T11:47:28.828Z,0
2018-09-23T11:52:31.368Z,1
2018-09-23T11:57:34.079Z,0
2018-09-23T12:02:36.174Z,0
2018-09-23T12:07:38.566Z,0
2018-09-23T12:12:41.023Z,0
2018-09-23T12:17:43.469Z,2
2018-09-23T12:22:45.942Z,0
2018-09-23T12:27:48.429Z,0
2018-09-23T12:32:50.794Z,0
2018-09-23T12:37:53.209Z,0
2018-09-23T12:42:55.686Z,0
2018-09-23T12:47:58.102Z,0
2018-09-23T12:53:00.542Z,0
2018-09-23T12:58:02.983Z,0
2018-09-23T13:03:05.419Z,1
2018-09-23T13:08:07.861Z,1
2018-09-23T13:13:10.291Z,1
2018-09-23T13:18:12.842Z,0
2018-09-23T13:23:15.183Z,0
2018-09-23T13:28:17.645Z,0
2018-09-23T13:33:20.058Z,0
2018-09-23T13:38:22.485Z,1
2018-09-23T13:43:24.952Z,0
2018-09-23T13:48:27.411Z,3
2018-09-23T13:53:29.840Z,2
2018-09-23T13:58:32.258Z,0
2018-09-23T14:03:34.711Z,2
2018-09-23T14:08:37.158Z,1
2018-09-23T14:13:39.573Z,0
2018-09-23T14:18:42.098Z,0
2018-09-23T14:23:44.646Z,1
2018-09-23T14:28:46.893Z,0
2018-09-23T14:33:49.379Z,1
2018-09-23T14:38:51.884Z,0
2018-09-23T14:43:54.246Z,1
2018-09-23T14:48:56.782Z,1
2018-09-23T14:53:59.129Z,0
2018-09-23T14:59:01.570Z,0
2018-09-23T15:04:04.031Z,0
2018-09-23T15:09:06.486Z,0
2018-09-23T15:14:08.915Z,1
2018-09-23T15:19:11.323Z,0
2018-09-23T15:24:13.751Z,0
2018-09-23T15:29:16.188Z,0
2018-09-23T15:34:18.706Z,1
2018-09-23T15:39:21.090Z,1
2018-09-23T15:44:23.519Z,1
2018-09-23T15:49:25.950Z,1
2018-09-23T15:54:28.378Z,0
2018-09-23T15:59:30.918Z,0
2018-09-23T16:04:33.270Z,0
2018-09-23T16:09:35.700Z,0
2018-09-23T16:14:38.252Z,1
2018-09-23T16:24:43.049Z,1
2018-09-23T16:29:45.466Z,1
2018-09-23T16:34:47.898Z,1
2018-09-23T16:39:50.365Z,1
2018-09-23T16:44:52.763Z,2
2018-09-23T16:49:55.210Z,4
2018-09-23T16:54:57.840Z,2
2018-09-23T17:00:00.130Z,3
2018-09-23T17:05:02.550Z,0
2018-09-23T17:10:05.008Z,2
2018-09-23T17:15:07.467Z,2
2018-09-23T17:20:09.957Z,1
2018-09-23T17:25:12.366Z,1
2018-09-23T17:30:14.840Z,1
2018-09-23T17:35:17.190Z,1
2018-09-23T17:40:19.621Z,0
2018-09-23T17:45:22.233Z,1
2018-09-23T17:50:24.525Z,0
2018-09-23T17:55:27.077Z,1
2018-09-23T18:00:29.404Z,3
2018-09-23T18:05:31.863Z,3
2018-09-23T18:10:34.256Z,1
2018-09-23T18:15:36.685Z,1
2018-09-23T18:20:39.127Z,6
2018-09-23T18:25:41.743Z,2
2018-09-23T18:30:44.022Z,3
2018-09-23T18:35:46.461Z,2
2018-09-23T18:40:48.951Z,2
2018-09-23T18:45:52.056Z,1
2018-09-23T18:50:53.879Z,1
2018-09-23T18:55:56.255Z,1
2018-09-23T19:00:58.658Z,1
2018-09-23T19:06:01.172Z,1
2018-09-23T19:11:03.564Z,1
2018-09-23T19:16:06.151Z,2
2018-09-23T19:21:08.415Z,0
2018-09-23T19:26:10.960Z,0
2018-09-23T19:31:13.308Z,0
2018-09-23T19:36:15.736Z,0
2018-09-23T19:41:18.188Z,0
2018-09-23T19:46:20.633Z,1
2018-09-23T19:51:23.105Z,0
2018-09-23T19:56:25.553Z,0
2018-09-23T20:01:27.953Z,0
2018-09-23T20:06:30.425Z,0
2018-09-23T20:11:32.825Z,0
2018-09-23T20:16:35.261Z,1
2018-09-23T20:21:37.703Z,1
2018-09-23T20:26:40.142Z,1
2018-09-23T20:31:42.596Z,1
2018-09-23T20:36:45.018Z,1
2018-09-23T20:41:47.485Z,2
2018-09-23T20:46:49.890Z,2
2018-09-23T20:51:52.353Z,1
2018-09-23T20:56:54.909Z,1
2018-09-23T21:01:57.306Z,1
2018-09-23T21:06:59.655Z,2
2018-09-23T21:12:02.095Z,1
2018-09-23T21:17:04.545Z,2
2018-09-23T21:22:07.022Z,2
2018-09-23T21:27:09.510Z,1
2018-09-23T21:32:11.851Z,1
2018-09-23T21:42:16.744Z,2
2018-09-23T21:47:19.165Z,1
2018-09-23T21:52:21.604Z,2
2018-09-23T21:57:24.251Z,1
2018-09-23T22:02:26.671Z,5
2018-09-23T22:07:28.986Z,2
2018-09-23T22:12:31.743Z,3
2018-09-23T22:17:33.962Z,3
2018-09-23T22:22:36.331Z,2
2018-09-23T22:27:38.863Z,3
2018-09-23T22:32:41.175Z,3
2018-09-23T22:37:43.597Z,3
2018-09-23T22:42:46.021Z,2
2018-09-23T22:47:48.475Z,3
2018-09-23T22:52:50.934Z,3
2018-09-23T22:57:53.381Z,2
2018-09-23T23:02:55.773Z,3
2018-09-23T23:07:58.210Z,3
2018-09-23T23:13:00.658Z,3
2018-09-23T23:18:03.282Z,4
2018-09-23T23:23:05.556Z,5
2018-09-23T23:28:08.294Z,5
2018-09-23T23:33:10.410Z,6
2018-09-23T23:38:12.839Z,4
2018-09-23T23:43:15.284Z,6
2018-09-23T23:48:17.729Z,5
2018-09-23T23:53:20.171Z,7
2018-09-23T23:58:22.657Z,7
